Time;durP1;ratioP1;P1;durP2;ratioP2;P2;SDS_P1;SDS_P2;PMS_P1;PMS_P2;Temp;Humidity;BMP_temperature;BMP_pressure;BME280_temperature;BME280_humidity;BME280_pressure;Samples;Min_cycle;Max_cycle;Signal;HPM_P1;HPM_P2
2022/10/11 04:00:12;;;;;;;11.93;7.30;;;10.00;96.30;;;;;;6006157;23;20371;-83
2022/10/11 04:02:38;;;;;;;16.97;7.27;;;10.00;96.30;;;;;;4956668;28;20442;-83
2022/10/11 04:05:05;;;;;;;12.00;7.03;;;9.90;96.30;;;;;;4960126;28;20183;-82
2022/10/11 04:07:31;;;;;;;12.27;6.67;;;9.90;96.30;;;;;;4959361;28;20203;-83
2022/10/11 04:09:56;;;;;;;10.33;6.03;;;9.80;96.30;;;;;;4958821;28;20526;-83
2022/10/11 04:12:22;;;;;;;16.40;7.23;;;9.80;96.30;;;;;;4958609;28;20482;-83
2022/10/11 04:14:47;;;;;;;6.70;4.50;;;9.80;96.30;;;;;;4961286;28;20179;-81
2022/10/11 04:17:13;;;;;;;14.03;6.00;;;9.70;96.30;;;;;;4961117;28;20185;-81
2022/10/11 04:19:38;;;;;;;8.30;4.93;;;9.70;96.30;;;;;;4959302;28;20174;-81
2022/10/11 04:22:05;;;;;;;9.10;4.20;;;9.60;96.30;;;;;;4955863;28;20191;-81
2022/10/11 04:24:30;;;;;;;10.03;4.40;;;9.60;96.30;;;;;;4936277;29;20215;-81
2022/10/11 04:26:56;;;;;;;13.10;4.60;;;9.40;96.30;;;;;;5019238;23;20463;-81
2022/10/11 04:29:23;;;;;;;8.40;2.90;;;9.40;96.30;;;;;;4952526;28;20222;-78
2022/10/11 04:31:48;;;;;;;7.40;2.70;;;9.40;96.30;;;;;;4955918;28;20601;-77
2022/10/11 04:34:14;;;;;;;9.60;3.60;;;9.30;96.30;;;;;;4956047;28;20437;-81
2022/10/11 04:36:39;;;;;;;8.87;2.67;;;9.30;96.30;;;;;;4955660;28;20179;-81
2022/10/11 04:39:06;;;;;;;10.70;2.80;;;9.30;96.30;;;;;;4936156;28;20266;-80
2022/10/11 04:41:33;;;;;;;3.80;1.80;;;9.20;96.30;;;;;;4935944;29;20183;-80
2022/10/11 04:43:59;;;;;;;5.50;2.30;;;9.10;96.30;;;;;;4935534;29;20836;-81
2022/10/11 04:46:25;;;;;;;6.60;1.50;;;9.10;96.30;;;;;;4918718;29;20940;-79
2022/10/11 04:48:50;;;;;;;3.50;1.53;;;9.10;96.30;;;;;;4926178;29;20562;-80
2022/10/11 04:51:17;;;;;;;6.30;2.17;;;9.10;96.30;;;;;;4935389;29;20554;-80
2022/10/11 04:53:42;;;;;;;12.33;2.80;;;9.00;96.30;;;;;;4936639;29;20179;-79
2022/10/11 04:56:10;;;;;;;11.33;2.57;;;9.00;96.30;;;;;;4935178;29;20416;-81
2022/10/11 04:58:39;;;;;;;8.83;1.53;;;8.90;96.30;;;;;;4933387;29;20290;-80
2022/10/11 05:01:06;;;;;;;7.17;1.73;;;8.90;96.30;;;;;;4934552;29;20453;-80
2022/10/11 05:03:33;;;;;;;6.83;1.30;;;8.90;96.30;;;;;;4934836;29;20487;-79
2022/10/11 05:05:59;;;;;;;13.80;2.30;;;8.90;96.30;;;;;;4927310;29;20423;-80
2022/10/11 05:08:25;;;;;;;9.33;1.80;;;8.80;96.30;;;;;;4934046;29;20478;-80
2022/10/11 05:11:03;;;;;;;8.63;1.87;;;8.70;96.30;;;;;;4934065;29;20407;-80
2022/10/11 05:13:29;;;;;;;6.80;1.70;;;8.70;96.30;;;;;;4921054;29;20168;-80
2022/10/11 05:15:56;;;;;;;10.47;2.23;;;8.70;96.30;;;;;;4934702;29;20416;-80
2022/10/11 05:18:22;;;;;;;7.10;1.80;;;8.60;96.30;;;;;;4934144;29;20444;-80
2022/10/11 05:20:48;;;;;;;19.70;2.60;;;8.60;96.30;;;;;;4936144;29;20415;-80
2022/10/11 05:23:14;;;;;;;4.00;1.63;;;8.60;96.30;;;;;;4928183;29;20453;-80
2022/10/11 05:25:40;;;;;;;9.67;1.77;;;8.60;96.30;;;;;;4928348;29;20947;-80
2022/10/11 05:28:06;;;;;;;9.27;1.90;;;8.60;96.30;;;;;;4914809;29;20223;-80
2022/10/11 05:30:31;;;;;;;13.33;1.73;;;8.50;96.30;;;;;;4915492;29;20826;-80
2022/10/11 05:32:57;;;;;;;5.67;1.30;;;8.50;96.30;;;;;;4915927;29;20521;-80
2022/10/11 05:35:22;;;;;;;6.70;1.23;;;8.50;96.30;;;;;;4916886;29;20181;-80
2022/10/11 05:37:48;;;;;;;8.30;1.70;;;8.50;96.30;;;;;;4915070;29;20200;-80
2022/10/11 05:40:13;;;;;;;10.60;1.87;;;8.50;96.30;;;;;;4916998;29;20173;-80
2022/10/11 05:42:39;;;;;;;11.57;1.73;;;8.40;96.30;;;;;;4915655;29;20210;-79
2022/10/11 05:45:05;;;;;;;9.37;1.63;;;8.40;96.30;;;;;;4915641;29;20267;-80
2022/10/11 05:47:31;;;;;;;6.00;1.63;;;8.40;96.30;;;;;;4922872;29;20559;-78
2022/10/11 05:49:57;;;;;;;11.77;2.07;;;8.40;96.30;;;;;;4935168;29;20443;-77
2022/10/11 05:52:22;;;;;;;8.87;1.60;;;8.40;96.30;;;;;;4935399;29;20180;-79
2022/10/11 05:54:48;;;;;;;9.60;2.00;;;8.50;96.30;;;;;;4935329;29;20234;-79
2022/10/11 05:57:14;;;;;;;8.70;1.40;;;8.50;96.30;;;;;;4935034;29;20179;-79
2022/10/11 05:59:39;;;;;;;7.27;1.50;;;8.50;96.30;;;;;;4949530;28;20184;-79
2022/10/11 06:02:05;;;;;;;10.03;1.67;;;8.60;96.30;;;;;;4934656;29;20249;-79
2022/10/11 06:04:35;;;;;;;9.83;1.60;;;8.60;96.30;;;;;;4919737;29;20216;-79
2022/10/11 06:07:00;;;;;;;5.93;1.43;;;8.60;96.30;;;;;;4931230;29;20187;-79
2022/10/11 06:09:26;;;;;;;9.33;1.70;;;8.60;96.30;;;;;;4935151;29;20611;-79
2022/10/11 06:11:51;;;;;;;8.53;1.50;;;8.60;96.30;;;;;;4933935;29;20691;-79
2022/10/11 06:14:17;;;;;;;11.27;2.70;;;8.70;96.30;;;;;;4935115;29;20178;-79
2022/10/11 06:16:43;;;;;;;9.90;1.70;;;8.70;96.30;;;;;;4933359;29;20584;-79
2022/10/11 06:19:08;;;;;;;6.37;1.43;;;8.70;96.30;;;;;;4934850;29;20199;-79
2022/10/11 06:21:34;;;;;;;7.33;1.77;;;8.70;96.30;;;;;;4919148;29;20587;-79
2022/10/11 06:24:00;;;;;;;8.00;2.20;;;8.70;96.30;;;;;;4916281;29;20183;-79
2022/10/11 06:26:26;;;;;;;7.33;1.83;;;8.70;96.30;;;;;;4915236;29;20184;-79
2022/10/11 06:28:52;;;;;;;6.00;1.30;;;8.60;96.30;;;;;;4915852;29;20482;-79
2022/10/11 06:31:17;;;;;;;6.70;1.60;;;8.50;96.30;;;;;;4916533;29;20180;-80
2022/10/11 06:33:43;;;;;;;3.70;1.20;;;8.50;96.30;;;;;;4915134;29;20187;-79
2022/10/11 06:36:11;;;;;;;7.73;1.50;;;8.40;96.30;;;;;;4916508;29;20235;-79
2022/10/11 06:38:37;;;;;;;8.43;1.80;;;8.40;96.30;;;;;;4915815;29;20200;-79
2022/10/11 06:41:15;;;;;;;6.67;1.73;;;8.40;96.30;;;;;;4915023;29;20432;-79
2022/10/11 06:43:40;;;;;;;16.70;1.80;;;8.60;96.30;;;;;;4915102;29;20190;-79
2022/10/11 06:46:07;;;;;;;8.43;2.20;;;8.70;96.30;;;;;;4916349;29;20420;-79
2022/10/11 06:48:32;;;;;;;11.80;2.40;;;8.70;96.30;;;;;;4915779;29;20267;-79
2022/10/11 06:50:58;;;;;;;9.53;2.23;;;8.90;96.30;;;;;;4914862;29;20996;-79
2022/10/11 06:53:24;;;;;;;19.67;2.70;;;9.70;96.30;;;;;;4915363;29;20176;-79
2022/10/11 06:55:50;;;;;;;9.70;1.40;;;11.40;96.30;;;;;;4917225;29;20427;-79
2022/10/11 06:58:15;;;;;;;7.27;1.90;;;12.90;96.30;;;;;;4917327;29;20235;-80
2022/10/11 07:00:41;;;;;;;5.53;1.63;;;14.80;96.30;;;;;;4917905;29;20690;-80
2022/10/11 07:03:07;;;;;;;9.27;2.20;;;15.50;96.30;;;;;;4916780;29;20180;-79
2022/10/11 07:05:33;;;;;;;4.93;1.73;;;15.60;96.30;;;;;;4917288;29;20172;-79
2022/10/11 07:07:59;;;;;;;9.70;2.33;;;15.40;96.30;;;;;;4915450;29;21067;-79
2022/10/11 07:10:25;;;;;;;6.03;1.70;;;15.40;96.30;;;;;;4931941;29;20419;-79
2022/10/11 07:12:51;;;;;;;7.60;2.00;;;15.10;96.30;;;;;;4937670;29;20414;-79
2022/10/11 07:15:16;;;;;;;10.03;1.87;;;14.70;96.30;;;;;;4940262;29;20184;-79
2022/10/11 07:17:42;;;;;;;13.80;2.83;;;14.00;96.30;;;;;;4938995;29;20200;-79
2022/10/11 07:20:08;;;;;;;5.27;1.60;;;13.40;96.30;;;;;;4928867;29;20185;-78
2022/10/11 07:22:34;;;;;;;9.90;2.10;;;13.20;96.30;;;;;;4932483;29;20184;-78
2022/10/11 07:24:59;;;;;;;13.47;2.00;;;13.10;96.30;;;;;;4924266;29;20431;-78
2022/10/11 07:27:25;;;;;;;13.13;1.93;;;12.80;96.30;;;;;;4937039;29;20663;-78
2022/10/11 07:29:50;;;;;;;6.90;2.33;;;12.50;96.30;;;;;;4934175;29;20213;-78
2022/10/11 07:32:16;;;;;;;10.50;2.50;;;12.20;96.30;;;;;;4918912;29;20177;-78
2022/10/11 07:34:42;;;;;;;6.10;2.10;;;12.00;96.30;;;;;;4918946;29;20232;-78
2022/10/11 07:37:07;;;;;;;6.57;1.80;;;12.00;96.30;;;;;;4918181;29;20183;-78
2022/10/11 07:39:33;;;;;;;5.90;1.70;;;12.00;96.30;;;;;;4918732;29;20416;-78
2022/10/11 07:41:58;;;;;;;9.90;2.23;;;11.90;96.30;;;;;;4918844;29;20172;-78
2022/10/11 07:44:24;;;;;;;10.47;2.70;;;11.60;96.30;;;;;;4918657;29;20255;-77
2022/10/11 07:46:50;;;;;;;15.63;1.83;;;11.40;96.30;;;;;;4918159;29;20179;-78
2022/10/11 07:49:15;;;;;;;10.40;2.37;;;11.20;96.30;;;;;;4918624;29;20208;-77
2022/10/11 07:51:41;;;;;;;16.43;2.07;;;11.10;96.30;;;;;;4918584;29;20552;-77
2022/10/11 07:54:06;;;;;;;6.00;1.87;;;11.10;96.30;;;;;;4918462;29;20180;-77
2022/10/11 07:56:32;;;;;;;7.67;2.10;;;11.20;96.30;;;;;;4918520;29;20693;-77
2022/10/11 07:59:00;;;;;;;17.13;2.27;;;11.20;96.30;;;;;;4917902;29;20263;-77
2022/10/11 08:01:26;;;;;;;8.50;1.93;;;11.30;96.30;;;;;;4918433;29;20534;-77
2022/10/11 08:03:52;;;;;;;5.57;1.70;;;11.50;96.30;;;;;;4918546;29;20416;-77
2022/10/11 08:06:21;;;;;;;14.33;2.40;;;11.50;96.30;;;;;;4918545;29;20427;-77
2022/10/11 08:08:47;;;;;;;10.20;1.77;;;11.30;96.30;;;;;;4916454;29;20267;-77
2022/10/11 08:11:27;;;;;;;7.20;1.50;;;11.30;96.30;;;;;;4924605;29;20415;-76
2022/10/11 08:13:53;;;;;;;15.47;1.73;;;11.20;96.30;;;;;;4931424;29;20482;-77
2022/10/11 08:16:19;;;;;;;13.83;1.87;;;10.80;96.30;;;;;;4929347;29;20428;-77
2022/10/11 08:18:45;;;;;;;8.20;1.57;;;10.70;96.30;;;;;;4922129;29;20659;-77
2022/10/11 08:21:14;;;;;;;6.70;1.43;;;10.70;96.30;;;;;;4936991;29;20887;-76
2022/10/11 08:23:39;;;;;;;11.90;1.93;;;10.80;96.30;;;;;;4926069;29;20798;-77
2022/10/11 08:26:05;;;;;;;11.47;1.90;;;10.90;96.30;;;;;;4916702;29;20421;-77
2022/10/11 08:28:31;;;;;;;5.93;1.63;;;11.10;96.30;;;;;;4917177;29;20249;-77
2022/10/11 08:30:57;;;;;;;19.27;3.33;;;11.20;96.30;;;;;;4917883;29;20332;-77
2022/10/11 08:33:24;;;;;;;13.80;2.90;;;11.10;96.30;;;;;;4917881;29;21128;-76
2022/10/11 08:35:51;;;;;;;11.83;2.70;;;11.00;96.30;;;;;;4917752;29;20189;-76
2022/10/11 08:38:17;;;;;;;13.43;1.60;;;11.10;96.30;;;;;;4917080;29;20440;-76
2022/10/11 08:40:55;;;;;;;17.17;3.20;;;11.20;96.30;;;;;;4917761;29;20416;-76
2022/10/11 08:43:53;;;;;;;12.63;2.30;;;11.20;96.30;;;;;;4917690;29;20850;-76
2022/10/11 08:46:24;;;;;;;11.67;2.60;;;11.40;96.30;;;;;;4917573;29;20511;-76
2022/10/11 08:48:50;;;;;;;20.73;2.57;;;11.60;96.30;;;;;;4916837;29;20472;-77
2022/10/11 08:51:38;;;;;;;6.50;1.70;;;12.00;96.30;;;;;;4917546;29;20416;-77
2022/10/11 08:54:06;;;;;;;12.70;3.43;;;13.00;96.30;;;;;;4917310;29;20852;-77
2022/10/11 08:56:35;;;;;;;12.73;2.70;;;14.80;96.30;;;;;;4917324;29;20428;-77
2022/10/11 08:59:25;;;;;;;14.63;2.30;;;15.50;96.30;;;;;;4916940;29;20855;-77
2022/10/11 09:02:03;;;;;;;9.77;2.80;;;15.40;96.30;;;;;;4916164;29;20424;-77
2022/10/11 09:04:31;;;;;;;4.90;1.73;;;15.60;96.30;;;;;;4917297;29;20428;-77
2022/10/11 09:07:20;;;;;;;6.60;1.80;;;15.60;96.30;;;;;;4917379;29;20464;-77
2022/10/11 09:10:03;;;;;;;5.53;1.60;;;15.40;96.30;;;;;;4936368;29;21171;-77
2022/10/11 09:12:54;;;;;;;12.13;2.43;;;15.10;96.30;;;;;;4936514;29;20912;-77
2022/10/11 09:15:33;;;;;;;12.13;1.63;;;15.60;96.30;;;;;;4935673;29;20430;-77
2022/10/11 09:18:36;;;;;;;14.30;2.87;;;15.90;96.30;;;;;;4935584;29;20438;-77
2022/10/11 09:21:36;;;;;;;9.73;2.10;;;15.20;96.30;;;;;;4934842;29;20415;-77
2022/10/11 09:24:07;;;;;;;9.50;2.30;;;15.50;96.30;;;;;;4935651;29;20438;-77
2022/10/11 09:26:36;;;;;;;13.90;1.80;;;16.20;96.30;;;;;;4919292;29;20440;-78
2022/10/11 09:29:30;;;;;;;4.07;1.50;;;16.10;96.30;;;;;;4915138;29;20511;-77
2022/10/11 09:31:57;;;;;;;9.80;2.53;;;16.80;96.30;;;;;;4916719;29;20533;-77
2022/10/11 09:34:31;;;;;;;7.03;1.70;;;17.20;96.30;;;;;;4916123;29;20409;-78
2022/10/11 09:37:13;;;;;;;13.77;2.37;;;17.80;96.30;;;;;;4916112;29;20424;-77
2022/10/11 09:39:44;;;;;;;6.80;1.63;;;18.10;96.30;;;;;;4916935;29;20471;-78
2022/10/11 09:42:11;;;;;;;8.00;1.60;;;17.90;96.30;;;;;;4916709;29;20428;-78
2022/10/11 09:44:39;;;;;;;13.20;1.93;;;16.70;96.30;;;;;;4916417;29;20500;-78
2022/10/11 09:47:06;;;;;;;5.83;2.07;;;14.60;96.30;;;;;;4915777;29;20908;-77
2022/10/11 09:49:39;;;;;;;7.27;1.60;;;13.80;96.30;;;;;;4916763;29;20467;-79
2022/10/11 09:52:12;;;;;;;6.33;1.50;;;14.30;96.30;;;;;;4916267;29;20460;-78
2022/10/11 09:54:42;;;;;;;8.27;1.87;;;15.40;96.30;;;;;;4916421;29;20436;-78
2022/10/11 09:57:30;;;;;;;8.43;1.73;;;15.50;96.30;;;;;;4914387;29;21168;-78
2022/10/11 10:00:11;;;;;;;16.90;1.80;;;15.60;96.30;;;;;;4916477;29;20420;-78
2022/10/11 10:02:48;;;;;;;10.73;2.17;;;16.40;96.30;;;;;;4916348;29;20841;-79
2022/10/11 10:05:16;;;;;;;14.60;2.60;;;17.60;96.30;;;;;;4916371;29;20968;-78
2022/10/11 10:08:21;;;;;;;10.33;1.40;;;18.50;96.30;;;;;;4922547;29;20975;-79
2022/10/11 10:10:57;;;;;;;4.63;1.70;;;17.80;96.30;;;;;;4935522;29;20419;-79
2022/10/11 10:13:37;;;;;;;9.83;2.13;;;17.70;96.30;;;;;;4935247;29;20926;-79
2022/10/11 10:16:04;;;;;;;11.50;2.03;;;18.20;96.30;;;;;;4935149;29;20494;-79
2022/10/11 10:18:33;;;;;;;11.20;2.27;;;18.40;96.30;;;;;;4933306;29;20459;-79
2022/10/11 10:21:00;;;;;;;8.87;1.70;;;19.10;96.30;;;;;;4935184;29;20643;-78
2022/10/11 10:23:29;;;;;;;9.10;2.03;;;19.10;95.80;;;;;;4935162;29;20430;-79
2022/10/11 10:26:18;;;;;;;5.80;1.40;;;18.30;93.10;;;;;;4916058;29;20428;-76
2022/10/11 10:28:53;;;;;;;9.10;1.80;;;17.90;94.80;;;;;;4916496;29;20489;-76
2022/10/11 10:31:24;;;;;;;4.70;1.40;;;17.30;95.90;;;;;;4931019;29;20578;-74
2022/10/11 10:33:53;;;;;;;5.80;2.00;;;16.20;96.00;;;;;;4932910;29;20866;-74
2022/10/11 10:36:25;;;;;;;8.10;1.63;;;15.30;96.30;;;;;;4934349;29;21001;-74
2022/10/11 10:39:07;;;;;;;9.50;2.07;;;14.80;96.30;;;;;;4932757;29;20451;-75
2022/10/11 10:41:32;;;;;;;8.53;1.73;;;14.10;96.30;;;;;;4934521;29;20418;-75
2022/10/11 10:43:59;;;;;;;13.33;2.07;;;13.80;96.30;;;;;;4933462;29;20794;-74
2022/10/11 10:46:43;;;;;;;5.73;1.50;;;13.50;96.30;;;;;;4926636;29;20190;-76
2022/10/11 10:49:13;;;;;;;7.70;1.67;;;13.40;96.30;;;;;;4930822;29;20979;-76
2022/10/11 10:51:46;;;;;;;8.33;1.90;;;13.40;96.30;;;;;;4939504;29;20415;-75
2022/10/11 10:54:35;;;;;;;6.77;1.87;;;13.60;96.30;;;;;;4939531;29;20408;-75
2022/10/11 10:57:08;;;;;;;6.70;1.53;;;14.20;96.30;;;;;;4938962;29;20412;-74
2022/10/11 10:59:55;;;;;;;5.13;1.20;;;14.30;96.30;;;;;;4939637;29;20419;-75
2022/10/11 11:02:50;;;;;;;7.30;1.23;;;15.40;96.30;;;;;;4939382;29;20414;-75
2022/10/11 11:05:44;;;;;;;6.00;2.23;;;16.30;96.30;;;;;;4940608;29;20435;-74
2022/10/11 11:08:29;;;;;;;10.93;2.10;;;16.60;96.30;;;;;;4938482;29;20470;-75
2022/10/11 11:11:06;;;;;;;11.63;2.03;;;17.10;96.30;;;;;;4939664;29;20800;-75
2022/10/11 11:13:47;;;;;;;9.47;1.40;;;17.20;95.10;;;;;;4939435;29;20449;-75
2022/10/11 11:16:22;;;;;;;6.83;1.70;;;17.80;96.30;;;;;;4937589;29;20411;-75
2022/10/11 11:19:03;;;;;;;7.60;2.47;;;17.90;95.00;;;;;;4938394;29;20441;-75
2022/10/11 11:21:42;;;;;;;8.17;1.90;;;17.90;96.30;;;;;;4939300;29;20892;-75
2022/10/11 11:24:36;;;;;;;6.30;1.87;;;16.90;96.30;;;;;;4938903;29;20510;-75
2022/10/11 11:27:31;;;;;;;5.17;1.37;;;16.70;96.30;;;;;;4918480;29;20424;-74
2022/10/11 11:30:07;;;;;;;6.53;1.80;;;16.40;96.30;;;;;;4919815;29;20420;-74
2022/10/11 11:33:07;;;;;;;5.57;1.73;;;15.60;96.30;;;;;;4919712;29;20420;-75
2022/10/11 11:35:47;;;;;;;7.37;1.90;;;15.00;96.30;;;;;;4932986;29;20487;-75
2022/10/11 11:38:19;;;;;;;3.47;1.57;;;14.80;96.30;;;;;;4922728;29;20807;-75
2022/10/11 11:41:04;;;;;;;5.73;1.27;;;14.60;96.30;;;;;;4924210;29;20459;-75
2022/10/11 11:43:33;;;;;;;6.30;1.33;;;14.70;96.30;;;;;;4918387;29;20432;-75
2022/10/11 11:46:08;;;;;;;7.00;1.73;;;14.40;96.30;;;;;;4919247;29;20920;-75
2022/10/11 11:48:34;;;;;;;6.47;1.33;;;14.30;96.30;;;;;;4924224;29;20474;-75
2022/10/11 11:51:00;;;;;;;6.27;2.10;;;;;;;;;;4936739;29;20419;-75
2022/10/11 11:53:35;;;;;;;5.40;1.27;;;14.10;96.30;;;;;;4936233;29;20418;-75
2022/10/11 11:56:11;;;;;;;18.37;2.47;;;13.80;96.30;;;;;;4920463;29;20172;-75
2022/10/11 11:59:03;;;;;;;7.83;1.80;;;14.00;96.30;;;;;;4916026;29;20446;-75
2022/10/11 12:01:36;;;;;;;5.93;2.30;;;15.00;96.30;;;;;;4919633;29;20424;-74
2022/10/11 12:04:16;;;;;;;7.60;1.57;;;15.60;96.30;;;;;;4917256;29;20417;-75
2022/10/11 12:06:42;;;;;;;9.03;1.60;;;;;;;;;;4915877;29;20435;-74
2022/10/11 12:09:21;;;;;;;6.37;1.40;;;16.10;96.30;;;;;;4925125;29;20467;-75
2022/10/11 12:11:59;;;;;;;4.03;1.40;;;16.90;96.30;;;;;;4917597;29;20419;-75
2022/10/11 12:14:30;;;;;;;5.07;1.30;;;17.20;92.40;;;;;;4916334;29;20461;-77
2022/10/11 12:17:15;;;;;;;6.43;1.23;;;17.10;96.30;;;;;;4917761;29;20433;-77
2022/10/11 12:19:58;;;;;;;7.60;1.50;;;16.60;96.30;;;;;;4920938;29;20443;-77
2022/10/11 12:22:27;;;;;;;15.07;3.17;;;16.60;96.30;;;;;;4917190;29;20928;-77
2022/10/11 12:24:58;;;;;;;12.43;1.73;;;16.60;96.30;;;;;;4925186;29;20430;-77
2022/10/11 12:27:45;;;;;;;6.30;1.50;;;16.20;96.30;;;;;;4934496;29;20458;-77
2022/10/11 12:30:52;;;;;;;5.17;2.03;;;16.20;96.30;;;;;;4922804;29;20432;-76
2022/10/11 12:33:29;;;;;;;7.33;1.50;;;16.10;96.00;;;;;;4930495;29;20965;-75
2022/10/11 12:35:54;;;;;;;7.83;1.70;;;15.80;96.30;;;;;;4924560;29;20924;-76
2022/10/11 12:38:36;;;;;;;5.03;1.20;;;15.40;96.30;;;;;;4925261;29;20488;-77
2022/10/11 12:41:15;;;;;;;9.83;1.60;;;15.00;96.30;;;;;;4924543;29;20184;-75
2022/10/11 12:43:47;;;;;;;7.90;1.63;;;14.60;96.30;;;;;;4917728;29;20896;-75
2022/10/11 12:46:27;;;;;;;7.53;1.37;;;14.50;96.30;;;;;;4928452;29;20494;-76
2022/10/11 12:49:17;;;;;;;5.70;2.10;;;14.30;96.30;;;;;;4916961;29;20472;-75
2022/10/11 12:51:49;;;;;;;13.27;1.97;;;14.10;96.30;;;;;;4917600;29;20499;-75
2022/10/11 12:54:20;;;;;;;7.43;1.57;;;13.90;96.30;;;;;;4917323;29;20829;-76
2022/10/11 12:57:19;;;;;;;3.17;1.30;;;13.60;96.30;;;;;;4916943;29;20459;-74
2022/10/11 12:59:45;;;;;;;6.80;1.30;;;13.10;96.30;;;;;;4917515;29;20407;-74
2022/10/11 13:02:22;;;;;;;4.43;1.13;;;13.00;96.30;;;;;;4929882;29;20438;-75
2022/10/11 13:04:48;;;;;;;7.43;2.00;;;12.90;96.30;;;;;;4936366;29;20411;-74
2022/10/11 13:07:22;;;;;;;2.87;0.97;;;13.30;96.30;;;;;;4935643;29;20924;-74
2022/10/11 13:09:52;;;;;;;8.53;1.47;;;14.10;96.30;;;;;;4935861;29;20188;-73
2022/10/11 13:12:22;;;;;;;10.20;1.50;;;14.80;96.30;;;;;;4935031;29;20467;-74
2022/10/11 13:14:59;;;;;;;6.40;1.53;;;15.20;96.30;;;;;;4936083;29;20439;-75
2022/10/11 13:17:34;;;;;;;7.27;1.13;;;15.40;96.30;;;;;;4935074;29;20867;-76
2022/10/11 13:20:16;;;;;;;10.13;1.90;;;15.70;96.30;;;;;;4935808;29;20415;-75
2022/10/11 13:22:46;;;;;;;4.80;1.47;;;16.00;96.30;;;;;;4931109;29;20480;-74
2022/10/11 13:25:17;;;;;;;3.33;1.20;;;16.20;94.00;;;;;;4916771;29;20880;-74
2022/10/11 13:27:43;;;;;;;5.60;1.30;;;16.00;93.20;;;;;;4915906;29;20974;-74
2022/10/11 13:30:17;;;;;;;8.33;1.43;;;15.80;94.40;;;;;;4916700;29;20413;-75
2022/10/11 13:32:43;;;;;;;3.53;1.23;;;16.10;93.50;;;;;;4920397;29;20926;-75
2022/10/11 13:35:27;;;;;;;14.87;1.60;;;16.00;95.40;;;;;;4935726;29;20499;-75
2022/10/11 13:37:53;;;;;;;4.03;1.50;;;15.30;93.50;;;;;;4936533;29;20442;-76
2022/10/11 13:40:21;;;;;;;8.20;1.47;;;15.70;94.40;;;;;;4934507;29;20482;-76
2022/10/11 13:42:49;;;;;;;6.73;1.30;;;15.60;92.50;;;;;;4929372;29;20184;-75
2022/10/11 13:45:18;;;;;;;8.03;1.33;;;15.80;94.40;;;;;;4919683;29;20526;-76
2022/10/11 13:47:46;;;;;;;7.50;1.20;;;15.60;93.20;;;;;;4924232;29;20530;-76
2022/10/11 13:50:14;;;;;;;13.60;2.90;;;15.60;91.50;;;;;;4919953;29;20436;-76
2022/10/11 13:52:54;;;;;;;8.17;1.63;;;16.00;95.00;;;;;;4934741;29;20982;-76
2022/10/11 13:55:27;;;;;;;9.23;1.50;;;16.10;93.30;;;;;;4934133;29;20424;-76
2022/10/11 13:57:53;;;;;;;6.80;1.70;;;15.70;94.20;;;;;;4932926;29;21025;-77
2022/10/11 14:00:23;;;;;;;8.13;1.30;;;15.70;93.40;;;;;;4935218;29;20506;-76
2022/10/11 14:03:03;;;;;;;5.53;1.13;;;15.90;93.20;;;;;;4920797;29;20425;-76
2022/10/11 14:05:41;;;;;;;9.43;1.37;;;16.00;91.00;;;;;;4915755;29;20466;-77
2022/10/11 14:08:20;;;;;;;7.10;1.57;;;15.60;90.80;;;;;;4915624;29;20977;-76
2022/10/11 14:10:47;;;;;;;5.07;1.63;;;15.50;91.40;;;;;;4930182;29;20415;-77
2022/10/11 14:13:38;;;;;;;6.80;1.60;;;15.60;92.60;;;;;;4922161;29;20511;-76
2022/10/11 14:16:19;;;;;;;5.63;0.90;;;15.60;90.80;;;;;;4925495;29;20452;-75
2022/10/11 14:18:58;;;;;;;3.07;1.40;;;15.50;91.10;;;;;;4935761;29;20431;-75
2022/10/11 14:21:50;;;;;;;4.37;1.13;;;15.80;92.90;;;;;;4924944;29;20435;-75
2022/10/11 14:24:16;;;;;;;9.40;1.93;;;15.60;90.40;;;;;;4938119;29;20510;-75
2022/10/11 14:26:51;;;;;;;8.70;1.20;;;16.00;93.30;;;;;;4936849;29;20806;-74
2022/10/11 14:29:27;;;;;;;6.63;1.40;;;16.20;92.10;;;;;;4926403;29;20470;-75
2022/10/11 14:32:28;;;;;;;7.90;1.97;;;16.20;91.90;;;;;;4921889;29;20479;-75
2022/10/11 14:34:58;;;;;;;4.90;1.53;;;15.90;94.20;;;;;;4924547;29;20423;-75
2022/10/11 14:37:24;;;;;;;5.10;1.33;;;15.50;95.70;;;;;;4927782;29;20454;-75
2022/10/11 14:39:53;;;;;;;9.03;1.43;;;15.20;96.30;;;;;;4932623;29;20423;-75
2022/10/11 14:42:25;;;;;;;3.87;1.30;;;14.90;96.30;;;;;;4925746;29;20424;-74
2022/10/11 14:44:51;;;;;;;9.50;1.50;;;;;;;;;;4928306;29;20780;-75
2022/10/11 14:47:17;;;;;;;4.87;1.27;;;;;;;;;;4930231;29;20455;-74
2022/10/11 14:49:43;;;;;;;3.20;1.20;;;14.30;96.30;;;;;;4935796;29;20503;-74
2022/10/11 14:52:11;;;;;;;8.33;1.67;;;14.30;96.30;;;;;;4935274;29;20415;-74
2022/10/11 14:54:37;;;;;;;6.30;1.47;;;14.20;96.30;;;;;;4931549;29;20424;-75
2022/10/11 14:57:03;;;;;;;10.03;1.13;;;14.00;96.30;;;;;;4921021;29;20431;-74
2022/10/11 14:59:37;;;;;;;6.87;1.40;;;13.90;96.30;;;;;;4919846;29;20216;-75
2022/10/11 15:02:05;;;;;;;12.00;1.77;;;13.60;96.30;;;;;;4919684;29;20188;-74
2022/10/11 15:04:36;;;;;;;7.17;1.27;;;13.50;96.30;;;;;;4920138;29;20460;-75
2022/10/11 15:07:03;;;;;;;4.83;1.33;;;13.40;96.30;;;;;;4935089;29;20423;-75
2022/10/11 15:09:29;;;;;;;6.20;1.50;;;13.20;96.30;;;;;;4921633;29;20459;-75
2022/10/11 15:11:56;;;;;;;5.77;1.37;;;13.00;96.30;;;;;;4923478;29;20507;-75
2022/10/11 15:14:22;;;;;;;10.90;1.83;;;12.90;96.30;;;;;;4919333;29;20783;-75
2022/10/11 15:16:48;;;;;;;6.17;1.67;;;12.80;96.30;;;;;;4913214;29;20424;-74
2022/10/11 15:19:19;;;;;;;9.63;1.57;;;12.70;96.30;;;;;;4914705;29;20438;-74
2022/10/11 15:21:45;;;;;;;4.83;1.57;;;12.60;96.30;;;;;;4933237;29;20180;-74
2022/10/11 15:24:10;;;;;;;6.83;1.80;;;12.50;96.30;;;;;;4933207;29;20431;-74
2022/10/11 15:26:36;;;;;;;3.40;1.40;;;12.40;96.30;;;;;;4933455;29;20179;-74
2022/10/11 15:29:02;;;;;;;7.47;1.70;;;12.30;96.30;;;;;;4933125;29;20293;-74
2022/10/11 15:31:28;;;;;;;9.13;1.60;;;12.10;96.30;;;;;;4933607;29;20187;-74
2022/10/11 15:33:58;;;;;;;6.10;1.30;;;12.10;96.30;;;;;;4951825;28;20423;-74
2022/10/11 15:36:24;;;;;;;7.33;1.20;;;11.80;96.30;;;;;;4938707;29;20168;-74
2022/10/11 15:38:49;;;;;;;8.73;1.60;;;11.30;96.30;;;;;;4953013;29;20465;-75
2022/10/11 15:41:20;;;;;;;4.80;1.30;;;11.10;96.30;;;;;;4926307;29;20518;-74
2022/10/11 15:43:47;;;;;;;6.13;1.40;;;11.10;96.30;;;;;;4929950;29;21269;-74
2022/10/11 15:46:17;;;;;;;3.83;1.17;;;10.80;96.30;;;;;;4928677;29;20571;-74
2022/10/11 15:48:44;;;;;;;4.33;1.40;;;10.50;96.30;;;;;;4930772;29;20491;-74
2022/10/11 15:51:17;;;;;;;11.03;1.60;;;10.30;96.30;;;;;;4927029;29;20433;-75
2022/10/11 15:53:46;;;;;;;5.10;1.73;;;10.10;96.30;;;;;;4928817;29;20443;-73
2022/10/11 15:56:15;;;;;;;5.57;2.00;;;9.90;96.30;;;;;;4928556;29;20491;-74
2022/10/11 15:58:42;;;;;;;7.77;2.27;;;9.70;96.30;;;;;;4936275;29;20450;-74
2022/10/11 16:01:16;;;;;;;10.53;1.50;;;9.60;96.30;;;;;;4932630;29;20856;-75
2022/10/11 16:03:42;;;;;;;5.97;1.40;;;9.30;96.30;;;;;;4931924;29;20427;-75
2022/10/11 16:06:08;;;;;;;4.80;1.50;;;9.10;96.30;;;;;;4924672;29;20427;-75
2022/10/11 16:08:33;;;;;;;7.93;1.43;;;8.90;96.30;;;;;;4931315;29;20542;-75
2022/10/11 16:10:59;;;;;;;8.10;1.30;;;8.80;96.30;;;;;;4918455;29;20176;-75
2022/10/11 16:13:25;;;;;;;13.20;1.80;;;8.70;96.30;;;;;;4928531;29;20184;-75
2022/10/11 16:15:50;;;;;;;4.93;1.50;;;8.50;96.30;;;;;;4928900;29;20645;-75
2022/10/11 16:18:19;;;;;;;7.40;1.93;;;8.40;96.30;;;;;;4921777;29;20211;-75
2022/10/11 16:20:50;;;;;;;2.53;1.30;;;8.10;96.30;;;;;;4928663;29;20176;-74
2022/10/11 16:23:16;;;;;;;7.40;1.80;;;;;;;;;;4929414;29;20530;-74
2022/10/11 16:25:42;;;;;;;7.80;1.50;;;7.80;96.30;;;;;;4933451;29;20979;-74
2022/10/11 16:28:08;;;;;;;8.87;1.97;;;7.70;96.30;;;;;;4932813;29;20479;-75
2022/10/11 16:30:38;;;;;;;6.00;1.60;;;7.60;96.30;;;;;;4919768;29;20192;-75
2022/10/11 16:33:04;;;;;;;6.73;1.40;;;7.60;96.30;;;;;;4937641;29;20427;-74
2022/10/11 16:35:30;;;;;;;16.93;2.13;;;7.50;96.30;;;;;;4942011;29;20423;-75
2022/10/11 16:40:32;;;;;;;15.17;2.03;;;7.50;96.30;;;;;;5180600;23;20234;-73
2022/10/11 16:42:57;;;;;;;9.13;1.67;;;7.30;96.30;;;;;;4955255;28;20429;-74
2022/10/11 16:45:23;;;;;;;8.03;1.40;;;7.20;96.30;;;;;;4954942;28;20221;-74
2022/10/11 16:47:49;;;;;;;8.10;1.40;;;7.00;96.30;;;;;;4947249;28;20290;-74
2022/10/11 16:50:14;;;;;;;8.87;1.90;;;6.90;96.30;;;;;;4933774;29;20172;-74
2022/10/11 16:52:40;;;;;;;7.00;1.70;;;6.90;96.30;;;;;;4919746;29;20947;-74
2022/10/11 16:55:06;;;;;;;5.60;2.43;;;6.70;96.30;;;;;;4917290;29;20179;-75
2022/10/11 16:57:31;;;;;;;9.20;2.97;;;6.70;96.30;;;;;;4915322;29;20197;-74
2022/10/11 16:59:57;;;;;;;7.80;2.80;;;6.50;96.30;;;;;;4915678;29;20343;-75
2022/10/11 17:02:25;;;;;;;12.30;4.40;;;6.40;96.30;;;;;;4935242;29;20172;-74
2022/10/11 17:04:52;;;;;;;7.77;3.23;;;6.30;96.30;;;;;;4925557;29;20212;-74
2022/10/11 17:07:19;;;;;;;7.90;2.87;;;6.20;96.30;;;;;;4915156;29;20968;-75
2022/10/11 17:09:47;;;;;;;7.03;2.37;;;6.20;96.30;;;;;;4927297;29;20459;-74